Time;durP1;ratioP1;P1;durP2;ratioP2;P2;SDS_P1;SDS_P2;PMS_P1;PMS_P2;Temp;Humidity;BMP_temperature;BMP_pressure;BME280_temperature;BME280_humidity;BME280_pressure;Samples;Min_cycle;Max_cycle;Signal;HPM_P1;HPM_P2
2024/02/04 00:01:44;;;;;;;2.67;1.65;;;10.60;96.40;;;;;;5034169;28;20473;-76
2024/02/04 00:04:09;;;;;;;3.25;1.90;;;10.60;96.40;;;;;;5031098;28;20056;-76
2024/02/04 00:06:35;;;;;;;4.57;1.58;;;10.50;96.40;;;;;;5040321;28;20025;-76
2024/02/04 00:09:01;;;;;;;7.63;2.00;;;10.50;96.50;;;;;;5040412;28;20501;-75
2024/02/04 00:11:27;;;;;;;6.75;2.33;;;10.50;96.50;;;;;;5016049;28;20116;-75
2024/02/04 00:13:52;;;;;;;4.95;1.98;;;10.40;96.60;;;;;;5029359;28;20045;-75
2024/02/04 00:16:18;;;;;;;8.55;2.25;;;10.40;96.60;;;;;;5040468;28;20044;-76
2024/02/04 00:18:44;;;;;;;4.30;1.67;;;10.30;96.70;;;;;;5036186;28;20031;-76
2024/02/04 00:21:10;;;;;;;6.72;1.55;;;10.30;96.70;;;;;;5020555;28;20121;-76
2024/02/04 00:23:35;;;;;;;9.98;1.92;;;10.30;96.70;;;;;;5039885;28;20021;-76
2024/02/04 00:26:01;;;;;;;11.15;2.08;;;10.30;96.80;;;;;;5027632;28;20447;-75
2024/02/04 00:28:28;;;;;;;9.98;2.42;;;10.30;96.80;;;;;;5029465;28;20029;-75
2024/02/04 00:30:55;;;;;;;5.60;1.73;;;10.30;96.70;;;;;;5027119;28;20102;-76
2024/02/04 00:33:24;;;;;;;7.38;1.27;;;10.20;96.70;;;;;;5035717;28;20545;-76
2024/02/04 00:35:53;;;;;;;5.13;1.58;;;10.20;96.80;;;;;;5030190;28;20060;-76
2024/02/04 00:38:19;;;;;;;5.93;1.42;;;10.10;96.80;;;;;;5027323;28;20420;-75
2024/02/04 00:40:45;;;;;;;7.18;2.28;;;10.10;96.90;;;;;;5040383;28;20040;-76
2024/02/04 00:43:11;;;;;;;5.22;1.63;;;10.10;96.80;;;;;;5032566;28;20385;-75
2024/02/04 00:45:36;;;;;;;2.67;1.55;;;10.00;96.90;;;;;;5047584;28;20469;-76
2024/02/04 00:48:05;;;;;;;5.30;2.00;;;10.00;96.90;;;;;;5040497;28;20104;-76
2024/02/04 00:50:31;;;;;;;6.80;1.75;;;10.00;96.90;;;;;;5027726;28;20030;-75
2024/02/04 00:53:05;;;;;;;11.48;2.25;;;10.00;97.00;;;;;;5043740;28;20028;-76
2024/02/04 00:55:31;;;;;;;2.63;1.38;;;9.90;97.00;;;;;;5038687;28;20081;-76
2024/02/04 00:58:00;;;;;;;7.72;2.80;;;9.90;97.00;;;;;;5027181;28;20543;-76
2024/02/04 01:00:25;;;;;;;12.70;2.25;;;9.90;97.10;;;;;;5016317;28;20034;-75
2024/02/04 01:02:51;;;;;;;2.63;1.65;;;9.80;97.00;;;;;;5019907;28;20401;-76
2024/02/04 01:05:17;;;;;;;4.45;1.58;;;9.80;97.10;;;;;;5021659;28;20199;-76
2024/02/04 01:07:42;;;;;;;10.40;1.80;;;9.80;97.10;;;;;;5008493;28;20152;-76
2024/02/04 01:10:08;;;;;;;1.48;1.13;;;9.80;97.00;;;;;;5026287;28;20055;-76
2024/02/04 01:12:34;;;;;;;5.00;1.38;;;9.80;97.10;;;;;;5036513;28;20036;-76
2024/02/04 01:15:01;;;;;;;1.48;1.15;;;9.80;97.10;;;;;;5019834;28;20029;-76
2024/02/04 01:17:26;;;;;;;13.85;1.65;;;9.80;97.00;;;;;;5040458;28;20476;-75
2024/02/04 01:19:52;;;;;;;5.63;1.45;;;9.80;97.00;;;;;;5011229;28;20038;-76
2024/02/04 01:22:18;;;;;;;8.05;1.98;;;9.80;97.00;;;;;;5030358;28;20026;-75
2024/02/04 01:24:48;;;;;;;5.07;1.88;;;9.80;97.00;;;;;;5028092;28;20029;-76
2024/02/04 01:27:14;;;;;;;4.07;1.33;;;9.70;96.90;;;;;;5028763;28;20033;-75
2024/02/04 01:29:40;;;;;;;4.93;1.88;;;9.70;97.00;;;;;;5028735;28;20105;-76
2024/02/04 01:32:06;;;;;;;14.68;2.67;;;9.70;97.00;;;;;;5028791;28;20029;-76
2024/02/04 01:34:31;;;;;;;16.95;1.75;;;9.70;97.00;;;;;;5030454;28;20052;-75
2024/02/04 01:36:57;;;;;;;4.57;1.60;;;9.70;97.10;;;;;;5027608;28;20036;-75
2024/02/04 01:39:23;;;;;;;2.85;1.40;;;9.70;97.10;;;;;;5029212;28;20580;-76
2024/02/04 01:41:51;;;;;;;2.72;1.45;;;9.70;97.00;;;;;;5029192;28;20061;-76
2024/02/04 01:44:18;;;;;;;6.15;1.75;;;9.70;97.00;;;;;;5023470;28;20711;-76
2024/02/04 01:46:44;;;;;;;3.40;1.30;;;9.70;97.00;;;;;;5030941;28;20495;-76
2024/02/04 01:49:10;;;;;;;6.78;1.55;;;9.70;96.90;;;;;;5018292;28;20058;-76
2024/02/04 01:51:36;;;;;;;7.85;1.42;;;9.70;96.90;;;;;;5031192;28;20520;-76
2024/02/04 01:54:04;;;;;;;3.92;1.58;;;9.70;96.90;;;;;;5044644;28;20163;-76
2024/02/04 01:56:30;;;;;;;2.67;1.02;;;9.60;96.80;;;;;;5035475;28;20030;-76
2024/02/04 01:58:58;;;;;;;2.40;1.15;;;9.60;96.80;;;;;;5028464;28;20031;-76
2024/02/04 02:01:26;;;;;;;6.63;1.50;;;9.60;96.80;;;;;;5045589;28;20124;-75
2024/02/04 02:03:52;;;;;;;2.75;1.02;;;9.60;96.70;;;;;;5041433;28;20063;-76
2024/02/04 02:06:18;;;;;;;7.68;1.60;;;9.60;96.80;;;;;;5040577;28;20060;-75
2024/02/04 02:08:45;;;;;;;11.30;2.88;;;9.50;96.70;;;;;;5041163;28;20061;-76
2024/02/04 02:11:18;;;;;;;5.25;1.75;;;9.60;96.70;;;;;;5039957;28;20104;-76
2024/02/04 02:13:45;;;;;;;7.00;1.45;;;9.50;96.70;;;;;;5031520;28;20044;-75
2024/02/04 02:16:19;;;;;;;7.72;1.77;;;9.50;96.70;;;;;;5028874;28;20065;-76
2024/02/04 02:19:16;;;;;;;9.77;1.73;;;9.60;96.60;;;;;;5029515;28;20061;-75
2024/02/04 02:22:16;;;;;;;4.05;0.95;;;9.50;96.60;;;;;;5032877;28;20489;-76
2024/02/04 02:24:42;;;;;;;2.28;1.05;;;9.50;96.60;;;;;;5036148;28;20392;-76
2024/02/04 02:27:08;;;;;;;1.48;1.38;;;9.50;96.60;;;;;;5029950;28;20041;-75
2024/02/04 02:29:33;;;;;;;8.63;1.90;;;9.50;96.60;;;;;;5030102;28;20025;-76
2024/02/04 02:32:01;;;;;;;2.67;1.67;;;9.50;96.50;;;;;;5031474;28;20044;-76
2024/02/04 02:34:27;;;;;;;5.82;2.08;;;9.40;96.50;;;;;;5029462;28;20029;-75
2024/02/04 02:37:16;;;;;;;6.00;1.63;;;9.40;96.50;;;;;;5034667;28;20051;-75
2024/02/04 02:39:54;;;;;;;6.38;1.60;;;9.30;96.60;;;;;;5030118;28;20033;-76
2024/02/04 02:42:22;;;;;;;13.27;2.42;;;9.30;96.60;;;;;;5031756;28;20378;-75
2024/02/04 02:44:48;;;;;;;4.22;1.48;;;9.30;96.60;;;;;;5026381;28;20037;-76
2024/02/04 02:47:15;;;;;;;5.43;1.95;;;9.30;96.70;;;;;;5027843;28;20017;-75
2024/02/04 02:49:40;;;;;;;14.52;1.80;;;9.20;96.70;;;;;;5028200;28;20038;-75
2024/02/04 02:52:09;;;;;;;8.13;1.55;;;9.20;96.70;;;;;;5025658;28;20048;-76
2024/02/04 02:54:34;;;;;;;14.63;3.20;;;9.20;96.70;;;;;;5046960;28;20103;-76
2024/02/04 02:57:00;;;;;;;8.95;2.03;;;9.20;96.60;;;;;;5037851;28;20477;-76
2024/02/04 02:59:26;;;;;;;7.20;1.73;;;9.20;96.60;;;;;;5020272;28;20435;-75
2024/02/04 03:01:54;;;;;;;14.55;2.72;;;9.20;96.70;;;;;;5034487;28;20029;-75
2024/02/04 03:04:20;;;;;;;13.48;2.40;;;9.10;96.60;;;;;;5034318;28;20503;-76
2024/02/04 03:06:45;;;;;;;21.77;2.65;;;9.10;96.70;;;;;;5042818;28;20072;-76
2024/02/04 03:09:11;;;;;;;7.45;2.47;;;9.10;96.70;;;;;;5024160;28;20072;-75
2024/02/04 03:11:37;;;;;;;16.27;2.15;;;9.00;96.70;;;;;;5043891;28;20040;-76
2024/02/04 03:14:03;;;;;;;10.27;1.92;;;9.10;96.70;;;;;;5045297;28;20388;-76
2024/02/04 03:16:29;;;;;;;8.73;1.90;;;9.10;96.80;;;;;;5018951;28;20033;-75
2024/02/04 03:18:55;;;;;;;9.27;1.70;;;9.00;96.80;;;;;;5032750;28;20022;-75
2024/02/04 03:21:20;;;;;;;6.43;2.17;;;9.00;96.70;;;;;;5029448;28;20431;-75
2024/02/04 03:23:46;;;;;;;9.10;2.30;;;9.00;96.80;;;;;;5035082;28;20033;-75
2024/02/04 03:26:20;;;;;;;4.07;1.88;;;9.00;96.80;;;;;;5029967;28;20025;-75
2024/02/04 03:28:46;;;;;;;19.83;1.80;;;8.90;96.90;;;;;;5027952;28;20062;-76
2024/02/04 03:31:12;;;;;;;6.80;1.58;;;8.90;96.90;;;;;;5024939;28;20128;-75
2024/02/04 03:33:37;;;;;;;14.20;2.15;;;8.90;97.00;;;;;;5022122;28;20035;-75
2024/02/04 03:36:03;;;;;;;18.92;2.90;;;8.90;97.10;;;;;;5023828;28;20504;-76
2024/02/04 03:38:29;;;;;;;12.27;2.67;;;8.80;97.10;;;;;;5022977;28;20029;-75
2024/02/04 03:40:55;;;;;;;6.63;1.85;;;8.90;97.20;;;;;;5027313;28;20409;-75
2024/02/04 03:43:21;;;;;;;11.82;2.33;;;8.90;97.20;;;;;;5025605;28;20022;-75
2024/02/04 03:45:46;;;;;;;9.18;1.98;;;8.80;97.20;;;;;;5025986;28;20039;-75
2024/02/04 03:48:12;;;;;;;16.33;3.47;;;8.80;97.30;;;;;;5025967;28;20537;-76
2024/02/04 03:50:38;;;;;;;10.55;2.08;;;8.80;97.40;;;;;;5027210;28;20037;-76
2024/02/04 03:53:03;;;;;;;8.95;1.92;;;8.80;97.40;;;;;;5024570;28;20453;-75
2024/02/04 03:55:29;;;;;;;7.97;2.22;;;8.80;97.50;;;;;;5028392;28;20045;-75
2024/02/04 03:57:57;;;;;;;7.55;1.55;;;8.80;97.50;;;;;;5024606;28;20504;-76
2024/02/04 04:00:22;;;;;;;8.98;1.67;;;8.80;97.80;;;;;;5025207;28;20044;-75
2024/02/04 04:02:48;;;;;;;10.20;2.42;;;8.80;97.60;;;;;;5020863;28;20033;-75
2024/02/04 04:05:13;;;;;;;12.02;2.00;;;8.80;97.60;;;;;;5022323;28;20044;-75
2024/02/04 04:07:40;;;;;;;8.30;2.35;;;8.80;97.50;;;;;;5026154;28;20473;-75
2024/02/04 04:10:06;;;;;;;8.35;2.17;;;8.80;97.50;;;;;;5027760;28;20473;-76
2024/02/04 04:12:31;;;;;;;5.75;1.85;;;8.80;97.60;;;;;;5023036;28;20087;-75
2024/02/04 04:14:57;;;;;;;17.35;3.78;;;8.80;97.70;;;;;;5029520;28;20065;-75
2024/02/04 04:17:23;;;;;;;10.80;2.25;;;8.80;97.70;;;;;;5028179;28;20485;-75
2024/02/04 04:19:48;;;;;;;17.58;3.13;;;8.80;97.70;;;;;;5026951;28;20485;-76
2024/02/04 04:22:14;;;;;;;9.50;2.28;;;8.80;97.70;;;;;;5027805;28;20040;-75
2024/02/04 04:24:40;;;;;;;17.00;2.63;;;8.80;97.80;;;;;;5027684;28;20021;-76
2024/02/04 04:27:05;;;;;;;15.35;2.40;;;8.70;97.80;;;;;;5011859;28;20394;-76
2024/02/04 04:29:31;;;;;;;11.40;3.00;;;8.80;97.90;;;;;;5024084;28;20055;-75
2024/02/04 04:31:56;;;;;;;5.68;2.30;;;8.80;97.90;;;;;;5025916;28;20057;-77
2024/02/04 04:34:22;;;;;;;7.78;2.30;;;8.80;97.90;;;;;;5029252;28;20091;-75
2024/02/04 04:36:48;;;;;;;13.57;2.60;;;8.80;97.90;;;;;;5023672;28;20112;-76
2024/02/04 04:39:16;;;;;;;7.68;1.65;;;8.80;97.90;;;;;;5027181;28;20037;-75
2024/02/04 04:41:44;;;;;;;9.05;2.35;;;8.80;98.00;;;;;;5028087;28;20041;-75
2024/02/04 04:44:09;;;;;;;12.65;2.60;;;8.80;98.00;;;;;;5025961;28;20067;-75
2024/02/04 04:46:40;;;;;;;14.73;2.40;;;8.80;97.90;;;;;;5018769;28;20061;-75
2024/02/04 04:49:06;;;;;;;7.78;2.28;;;8.80;97.90;;;;;;5029988;28;20033;-75
2024/02/04 04:51:32;;;;;;;15.15;2.55;;;8.80;97.90;;;;;;5026022;28;20041;-75
2024/02/04 04:53:58;;;;;;;11.85;2.25;;;8.80;97.90;;;;;;5022109;28;20099;-76
2024/02/04 04:56:23;;;;;;;11.05;2.50;;;8.80;98.00;;;;;;5022725;28;20539;-75
2024/02/04 04:58:50;;;;;;;19.98;2.92;;;8.90;97.90;;;;;;5037241;28;20033;-75
2024/02/04 05:01:16;;;;;;;7.40;3.08;;;8.80;97.90;;;;;;5027483;28;20045;-75
2024/02/04 05:03:41;;;;;;;11.32;2.60;;;8.80;97.90;;;;;;5027342;28;20713;-75
2024/02/04 05:06:07;;;;;;;10.30;2.50;;;8.80;98.00;;;;;;5026095;28;20481;-75
2024/02/04 05:08:33;;;;;;;16.38;2.08;;;8.80;98.00;;;;;;5028548;28;20029;-75
2024/02/04 05:10:58;;;;;;;7.43;2.15;;;8.90;98.10;;;;;;5031077;28;20029;-75
2024/02/04 05:13:24;;;;;;;17.65;2.75;;;8.90;98.00;;;;;;5020092;28;20030;-75
2024/02/04 05:15:50;;;;;;;13.55;2.78;;;8.90;97.90;;;;;;5022340;28;20033;-75
2024/02/04 05:18:15;;;;;;;11.43;2.67;;;8.90;97.90;;;;;;5027581;28;20033;-75
2024/02/04 05:20:43;;;;;;;15.13;3.13;;;8.90;98.00;;;;;;5025102;28;20068;-75
2024/02/04 05:23:09;;;;;;;20.40;3.08;;;8.90;98.00;;;;;;5027700;28;20034;-75
2024/02/04 05:25:35;;;;;;;13.73;2.97;;;8.80;98.00;;;;;;5026180;28;20033;-75
2024/02/04 05:28:00;;;;;;;17.55;2.42;;;8.90;98.20;;;;;;5024318;28;20091;-75
2024/02/04 05:30:26;;;;;;;8.82;3.30;;;8.90;98.20;;;;;;5032114;28;20058;-75
2024/02/04 05:32:51;;;;;;;20.60;3.15;;;8.90;98.20;;;;;;5024340;28;20044;-75
2024/02/04 05:35:17;;;;;;;9.38;1.83;;;8.80;98.10;;;;;;5015364;28;20488;-75
2024/02/04 05:37:43;;;;;;;16.15;3.38;;;8.80;98.20;;;;;;5019699;28;20033;-75
2024/02/04 05:40:12;;;;;;;14.38;2.22;;;8.80;98.20;;;;;;5015958;28;20033;-78
2024/02/04 05:42:38;;;;;;;26.00;3.05;;;8.90;98.20;;;;;;5031177;28;20120;-76
2024/02/04 05:45:05;;;;;;;10.55;2.45;;;8.90;98.20;;;;;;5026111;28;20113;-75
2024/02/04 05:47:34;;;;;;;9.30;2.38;;;8.80;98.20;;;;;;5030561;28;20045;-75
2024/02/04 05:49:59;;;;;;;16.48;2.80;;;8.90;98.30;;;;;;5018537;28;20080;-75
2024/02/04 05:52:25;;;;;;;14.48;3.13;;;8.90;98.30;;;;;;5011007;28;20030;-75
2024/02/04 05:54:50;;;;;;;17.05;2.67;;;8.80;98.30;;;;;;5022808;28;20049;-75
2024/02/04 05:57:16;;;;;;;19.70;3.17;;;8.80;98.30;;;;;;5014136;28;20521;-75
2024/02/04 05:59:47;;;;;;;11.63;2.60;;;8.90;98.30;;;;;;5023792;28;20080;-75
2024/02/04 06:02:12;;;;;;;12.00;2.92;;;8.90;98.40;;;;;;5024295;28;20065;-75
2024/02/04 06:04:39;;;;;;;13.23;3.08;;;8.90;98.30;;;;;;5012683;28;20064;-75
2024/02/04 06:07:05;;;;;;;15.05;2.25;;;8.90;98.30;;;;;;5031160;28;20040;-75
2024/02/04 06:09:33;;;;;;;14.85;2.80;;;8.90;98.40;;;;;;5030443;28;20037;-75
2024/02/04 06:11:58;;;;;;;13.15;3.50;;;8.90;98.30;;;;;;5019177;28;20040;-75
2024/02/04 06:14:24;;;;;;;13.95;3.13;;;8.90;98.30;;;;;;5030674;28;20041;-75
2024/02/04 06:16:50;;;;;;;14.25;2.50;;;8.90;98.30;;;;;;5028730;28;20374;-75
2024/02/04 06:19:15;;;;;;;21.45;3.63;;;9.00;98.30;;;;;;5031139;28;20063;-75
2024/02/04 06:21:41;;;;;;;19.95;2.30;;;8.90;98.20;;;;;;5025015;28;20034;-75
2024/02/04 06:24:07;;;;;;;11.02;2.25;;;8.90;98.20;;;;;;5030009;28;20402;-75
2024/02/04 06:26:32;;;;;;;6.75;2.17;;;8.90;98.30;;;;;;5031495;28;20064;-75
2024/02/04 06:28:58;;;;;;;16.00;3.72;;;9.00;98.30;;;;;;5027687;28;20017;-76
2024/02/04 06:31:23;;;;;;;16.30;2.83;;;8.90;98.30;;;;;;5023262;28;20037;-75
2024/02/04 06:33:49;;;;;;;13.05;2.60;;;9.00;98.30;;;;;;5030751;28;20029;-75
2024/02/04 06:36:15;;;;;;;17.95;2.58;;;9.00;98.20;;;;;;5029770;28;20432;-76
2024/02/04 06:38:41;;;;;;;13.20;3.03;;;9.00;98.20;;;;;;5029947;28;20099;-76
2024/02/04 06:41:06;;;;;;;15.68;2.83;;;9.00;98.20;;;;;;5029765;28;20412;-76
2024/02/04 06:43:32;;;;;;;12.40;2.35;;;9.00;98.20;;;;;;5028923;28;20043;-75
2024/02/04 06:45:58;;;;;;;17.15;3.90;;;9.00;98.20;;;;;;5028740;28;20095;-76
2024/02/04 06:48:23;;;;;;;22.60;3.28;;;9.00;98.20;;;;;;5029917;28;20028;-76
2024/02/04 06:50:49;;;;;;;11.60;3.03;;;9.00;98.10;;;;;;5028062;28;20381;-76
2024/02/04 06:53:15;;;;;;;10.75;2.28;;;9.00;98.20;;;;;;5029195;28;20722;-75
2024/02/04 06:55:40;;;;;;;18.58;3.10;;;9.00;98.20;;;;;;5021767;28;20587;-76
2024/02/04 06:58:06;;;;;;;11.30;2.28;;;9.00;98.20;;;;;;5020789;28;20029;-76
2024/02/04 07:00:32;;;;;;;17.67;3.47;;;9.00;98.10;;;;;;5029654;28;20116;-76
2024/02/04 07:02:57;;;;;;;14.52;3.45;;;9.00;98.10;;;;;;5027644;28;20038;-76
2024/02/04 07:05:23;;;;;;;15.75;3.03;;;9.00;98.10;;;;;;5023845;28;20025;-75
2024/02/04 07:07:52;;;;;;;16.17;2.60;;;9.00;98.10;;;;;;5023866;28;21003;-76
2024/02/04 07:10:18;;;;;;;11.68;3.10;;;9.00;98.20;;;;;;5028248;28;20045;-76
2024/02/04 07:12:44;;;;;;;16.15;2.90;;;9.00;98.20;;;;;;5028958;28;20068;-76
2024/02/04 07:15:10;;;;;;;12.55;3.20;;;9.00;98.10;;;;;;5028854;28;20493;-76
2024/02/04 07:17:36;;;;;;;14.30;2.33;;;9.00;98.10;;;;;;5026154;28;20466;-76
2024/02/04 07:20:02;;;;;;;19.33;2.88;;;9.00;98.00;;;;;;5023534;28;20045;-76
2024/02/04 07:22:28;;;;;;;16.23;3.38;;;9.00;98.00;;;;;;5033118;28;20026;-76
2024/02/04 07:24:54;;;;;;;14.57;2.90;;;9.10;98.10;;;;;;5025604;28;20033;-76
2024/02/04 07:27:20;;;;;;;13.10;2.60;;;9.00;98.10;;;;;;5018356;28;20041;-76
2024/02/04 07:29:47;;;;;;;21.95;3.28;;;9.00;98.30;;;;;;5034983;28;20101;-76
2024/02/04 07:32:13;;;;;;;15.07;3.88;;;9.00;98.00;;;;;;5029484;28;20041;-76
2024/02/04 07:34:39;;;;;;;24.63;3.58;;;9.00;98.00;;;;;;5028789;28;20065;-76
2024/02/04 07:37:05;;;;;;;14.00;2.55;;;9.10;98.00;;;;;;5029189;28;20519;-76
2024/02/04 07:39:31;;;;;;;16.38;2.63;;;9.00;98.00;;;;;;5020700;28;20025;-76
2024/02/04 07:42:00;;;;;;;19.45;3.10;;;9.00;98.00;;;;;;5026890;28;20507;-76
2024/02/04 07:44:26;;;;;;;14.48;1.98;;;9.10;97.90;;;;;;5030178;28;20037;-76
2024/02/04 07:46:52;;;;;;;13.27;3.95;;;9.10;98.00;;;;;;5026530;28;20029;-76
2024/02/04 07:49:18;;;;;;;14.70;3.13;;;9.10;97.90;;;;;;5020567;28;20549;-76
2024/02/04 07:51:43;;;;;;;16.02;3.13;;;9.10;97.90;;;;;;5028369;28;20078;-76
2024/02/04 07:54:09;;;;;;;7.10;1.88;;;9.10;97.80;;;;;;5020008;28;20500;-76
2024/02/04 07:56:34;;;;;;;8.52;1.95;;;9.10;97.80;;;;;;5036121;28;20067;-76
2024/02/04 07:59:00;;;;;;;12.05;3.20;;;9.10;97.90;;;;;;5029534;28;20025;-76
2024/02/04 08:01:26;;;;;;;29.33;3.25;;;9.20;97.80;;;;;;5025381;28;20473;-75
2024/02/04 08:03:51;;;;;;;6.95;1.98;;;9.10;97.80;;;;;;5030355;28;20045;-76
2024/02/04 08:06:17;;;;;;;15.55;3.35;;;9.20;97.80;;;;;;5031439;28;20037;-76
2024/02/04 08:08:44;;;;;;;12.82;2.85;;;9.20;97.80;;;;;;5019967;28;20033;-75
2024/02/04 08:11:10;;;;;;;17.17;3.60;;;9.30;97.90;;;;;;5022135;28;20032;-76
2024/02/04 08:13:35;;;;;;;10.95;2.50;;;9.30;97.90;;;;;;5028519;28;20033;-76
2024/02/04 08:16:01;;;;;;;14.55;2.38;;;9.20;97.80;;;;;;5019634;28;20499;-76
2024/02/04 08:18:27;;;;;;;21.25;3.50;;;9.20;97.90;;;;;;5028920;28;20037;-76
2024/02/04 08:20:53;;;;;;;12.68;3.20;;;9.20;97.90;;;;;;5027566;28;20120;-76
2024/02/04 08:23:19;;;;;;;18.13;2.50;;;9.20;98.00;;;;;;5021596;28;20155;-75
2024/02/04 08:25:44;;;;;;;15.00;2.95;;;9.20;98.10;;;;;;5028806;28;20160;-76
2024/02/04 08:28:10;;;;;;;13.48;3.22;;;9.20;98.20;;;;;;5021179;28;20125;-77
2024/02/04 08:30:36;;;;;;;17.38;3.00;;;9.20;98.20;;;;;;5030480;28;20028;-76
2024/02/04 08:33:01;;;;;;;22.73;3.33;;;9.20;98.20;;;;;;5027846;28;20029;-76
2024/02/04 08:35:27;;;;;;;19.02;3.28;;;9.20;98.20;;;;;;5026808;28;20037;-76
2024/02/04 08:37:53;;;;;;;11.45;2.38;;;9.20;98.20;;;;;;5024753;28;20389;-76
2024/02/04 08:40:18;;;;;;;13.88;3.20;;;9.20;98.30;;;;;;5026109;28;20033;-76
2024/02/04 08:42:44;;;;;;;16.65;2.95;;;9.30;98.30;;;;;;5036272;28;20043;-77
2024/02/04 08:45:10;;;;;;;17.23;3.25;;;9.20;98.60;;;;;;5030852;28;20116;-75
2024/02/04 08:47:35;;;;;;;14.80;3.15;;;9.20;98.30;;;;;;5034448;28;20498;-75
2024/02/04 08:50:01;;;;;;;17.90;3.55;;;9.30;98.40;;;;;;5030420;28;20041;-77
2024/02/04 08:52:28;;;;;;;18.55;3.13;;;9.20;98.40;;;;;;5038237;28;20053;-75
2024/02/04 08:54:53;;;;;;;17.40;3.65;;;9.20;98.50;;;;;;5026801;28;20054;-75
2024/02/04 08:57:19;;;;;;;11.75;3.35;;;9.20;98.50;;;;;;5027685;28;20032;-75
2024/02/04 08:59:45;;;;;;;15.73;3.47;;;9.30;98.50;;;;;;5017658;28;20035;-75
2024/02/04 09:02:11;;;;;;;21.00;3.22;;;9.30;98.50;;;;;;5019031;28;20393;-75
2024/02/04 09:04:40;;;;;;;14.57;3.13;;;9.30;98.50;;;;;;5025975;28;20564;-75
2024/02/04 09:07:07;;;;;;;19.77;4.07;;;9.30;98.50;;;;;;5018743;28;20105;-75
2024/02/04 09:09:36;;;;;;;23.27;3.95;;;9.40;98.40;;;;;;5033301;28;20025;-75
2024/02/04 09:12:01;;;;;;;16.25;3.17;;;9.30;98.40;;;;;;5029867;28;20281;-75
2024/02/04 09:14:27;;;;;;;19.95;3.42;;;9.30;98.40;;;;;;5036215;28;20388;-75
2024/02/04 09:16:53;;;;;;;14.55;3.22;;;9.40;98.50;;;;;;5037616;28;20433;-75
2024/02/04 09:19:18;;;;;;;16.13;3.33;;;9.40;98.60;;;;;;5028108;28;20033;-75
2024/02/04 09:21:44;;;;;;;13.27;2.80;;;9.40;98.50;;;;;;5032948;28;20036;-75
2024/02/04 09:24:13;;;;;;;13.13;2.78;;;9.40;98.60;;;;;;5030128;28;20031;-75
2024/02/04 09:26:38;;;;;;;15.02;3.33;;;9.50;98.60;;;;;;5024584;28;20481;-75
2024/02/04 09:29:05;;;;;;;22.67;4.25;;;9.50;98.50;;;;;;5031028;28;20029;-75
2024/02/04 09:31:31;;;;;;;10.82;3.25;;;9.50;98.50;;;;;;5027911;28;20404;-75
2024/02/04 09:33:57;;;;;;;17.38;3.50;;;9.50;98.60;;;;;;5030422;28;20021;-75
2024/02/04 09:36:23;;;;;;;15.00;3.00;;;9.50;98.50;;;;;;5029277;28;20116;-75
2024/02/04 09:38:49;;;;;;;11.80;2.70;;;9.50;98.60;;;;;;5025232;28;20541;-75
2024/02/04 09:41:14;;;;;;;10.60;3.22;;;9.50;98.60;;;;;;5021866;28;20366;-75
2024/02/04 09:43:41;;;;;;;10.63;3.00;;;9.60;98.70;;;;;;5026808;28;20029;-75
2024/02/04 09:46:07;;;;;;;20.60;3.63;;;9.60;98.70;;;;;;5030501;28;20029;-75
2024/02/04 09:48:33;;;;;;;19.77;3.47;;;9.60;98.70;;;;;;5024731;28;20032;-75
2024/02/04 09:50:59;;;;;;;21.38;3.53;;;9.70;98.70;;;;;;5028242;28;20388;-75
2024/02/04 09:53:34;;;;;;;12.38;3.08;;;9.60;98.70;;;;;;5026467;28;20094;-75
2024/02/04 09:56:02;;;;;;;14.85;3.20;;;9.60;98.70;;;;;;5026146;28;20059;-75
2024/02/04 09:58:28;;;;;;;13.15;3.45;;;9.70;98.80;;;;;;5029434;28;20477;-75
2024/02/04 10:00:54;;;;;;;10.48;2.95;;;9.70;98.70;;;;;;5020661;28;20040;-75
2024/02/04 10:03:20;;;;;;;19.05;3.05;;;9.70;98.70;;;;;;5029577;28;20436;-74
2024/02/04 10:05:46;;;;;;;29.60;4.15;;;9.80;98.70;;;;;;5030499;28;20086;-74
2024/02/04 10:08:13;;;;;;;18.48;4.00;;;9.70;98.60;;;;;;5027447;28;20059;-79
2024/02/04 10:10:39;;;;;;;16.15;3.33;;;9.70;98.70;;;;;;5019959;28;20065;-75
2024/02/04 10:13:16;;;;;;;24.45;3.30;;;9.80;98.70;;;;;;5018895;28;20572;-75
2024/02/04 10:15:42;;;;;;;12.93;3.55;;;9.80;98.50;;;;;;5018646;28;20052;-75
2024/02/04 10:18:08;;;;;;;13.07;3.63;;;9.80;98.50;;;;;;5030133;28;20033;-74
2024/02/04 10:20:37;;;;;;;15.93;2.90;;;9.80;98.60;;;;;;5024690;28;20044;-75
2024/02/04 10:23:03;;;;;;;13.85;3.03;;;9.80;98.40;;;;;;5027787;28;20072;-75
2024/02/04 10:25:29;;;;;;;14.77;2.47;;;9.90;98.50;;;;;;5029446;28;20064;-73
2024/02/04 10:27:54;;;;;;;9.98;2.30;;;9.90;98.50;;;;;;5030422;28;20035;-75
2024/02/04 10:30:21;;;;;;;12.98;2.75;;;9.90;98.60;;;;;;5035637;28;20056;-74
2024/02/04 10:32:49;;;;;;;15.60;3.00;;;10.00;98.50;;;;;;5028570;28;20048;-75
2024/02/04 10:35:18;;;;;;;10.93;2.72;;;10.00;98.40;;;;;;5019175;28;20037;-77
2024/02/04 10:37:45;;;;;;;15.35;2.60;;;10.00;98.60;;;;;;5027060;28;20033;-78
2024/02/04 10:40:10;;;;;;;14.15;3.03;;;10.00;98.40;;;;;;5029003;28;20079;-77
2024/02/04 10:42:38;;;;;;;10.20;2.90;;;10.10;98.50;;;;;;5029182;28;20144;-75
2024/02/04 10:45:07;;;;;;;12.65;2.80;;;10.10;98.40;;;;;;5029407;28;20082;-76
2024/02/04 10:47:36;;;;;;;7.00;2.45;;;10.10;98.30;;;;;;5024902;28;20094;-76
2024/02/04 10:50:03;;;;;;;8.20;2.42;;;10.10;98.30;;;;;;5025835;28;20029;-76
2024/02/04 10:52:35;;;;;;;9.35;2.25;;;10.10;98.20;;;;;;5027825;28;20516;-76
2024/02/04 10:55:02;;;;;;;16.48;3.13;;;10.20;98.30;;;;;;5030091;28;20132;-76
2024/02/04 10:57:30;;;;;;;15.65;2.85;;;10.30;98.30;;;;;;5028039;28;20033;-76
2024/02/04 10:59:56;;;;;;;7.53;2.20;;;10.30;98.20;;;;;;5026666;28;20033;-75
2024/02/04 11:02:23;;;;;;;11.52;2.55;;;10.30;98.20;;;;;;5028819;28;20043;-76
2024/02/04 11:04:51;;;;;;;7.68;2.10;;;10.30;98.00;;;;;;5029848;28;20021;-76
2024/02/04 11:07:21;;;;;;;9.15;2.60;;;10.30;98.00;;;;;;5029219;28;20037;-75
2024/02/04 11:09:49;;;;;;;9.35;2.28;;;10.40;98.00;;;;;;5029304;28;20542;-75
2024/02/04 11:12:18;;;;;;;13.82;2.55;;;10.40;98.10;;;;;;5020525;28;20163;-76
2024/02/04 11:14:50;;;;;;;18.00;3.08;;;10.40;98.00;;;;;;5029323;28;20421;-75
2024/02/04 11:17:50;;;;;;;17.20;2.92;;;10.50;97.90;;;;;;5029139;28;20025;-75
2024/02/04 11:20:39;;;;;;;12.45;2.47;;;10.50;97.90;;;;;;5024974;28;20080;-75
2024/02/04 11:23:17;;;;;;;12.70;2.60;;;10.60;97.90;;;;;;5024813;28;20034;-75
2024/02/04 11:25:47;;;;;;;13.48;3.35;;;10.60;98.00;;;;;;5023035;28;20073;-75
2024/02/04 11:28:16;;;;;;;8.52;1.80;;;10.60;97.90;;;;;;5026597;28;20033;-77
2024/02/04 11:30:43;;;;;;;13.88;2.90;;;10.60;98.00;;;;;;5035187;28;20080;-77
2024/02/04 11:33:11;;;;;;;5.63;2.30;;;10.60;97.80;;;;;;5028352;28;20029;-75
2024/02/04 11:35:37;;;;;;;9.70;3.03;;;10.60;97.70;;;;;;5021017;28;20042;-75
2024/02/04 11:38:03;;;;;;;13.30;2.85;;;10.60;97.70;;;;;;5027538;28;20022;-75
2024/02/04 11:40:36;;;;;;;10.85;1.77;;;10.60;97.90;;;;;;5022752;28;20033;-75
2024/02/04 11:43:13;;;;;;;10.38;2.22;;;10.60;97.80;;;;;;5028776;28;20044;-76
2024/02/04 11:45:40;;;;;;;10.40;3.20;;;10.70;97.90;;;;;;5029111;28;20037;-75
2024/02/04 11:48:13;;;;;;;15.02;2.50;;;10.70;97.80;;;;;;5023758;28;20401;-77
2024/02/04 11:50:40;;;;;;;16.80;3.05;;;10.70;97.90;;;;;;5020567;28;20044;-81
2024/02/04 11:53:13;;;;;;;13.02;2.33;;;10.70;97.80;;;;;;5014090;28;20085;-76
2024/02/04 11:55:40;;;;;;;8.48;1.75;;;10.70;97.90;;;;;;5025392;28;20053;-76
2024/02/04 11:58:07;;;;;;;7.60;2.03;;;10.70;97.90;;;;;;5025522;28;20030;-76
2024/02/04 12:00:36;;;;;;;6.60;2.33;;;10.80;97.80;;;;;;5019068;28;20026;-75
2024/02/04 12:03:06;;;;;;;10.80;1.98;;;10.80;97.80;;;;;;5026134;28;20095;-78
2024/02/04 12:05:36;;;;;;;15.07;2.80;;;10.90;97.70;;;;;;5027964;28;20064;-79
2024/02/04 12:08:04;;;;;;;10.95;2.25;;;10.90;97.70;;;;;;5027456;28;20029;-78
2024/02/04 12:10:35;;;;;;;14.50;3.08;;;11.00;97.80;;;;;;5025400;28;20047;-85
2024/02/04 12:13:03;;;;;;;11.18;2.88;;;10.90;97.70;;;;;;5022216;28;20029;-74
2024/02/04 12:15:30;;;;;;;11.60;1.60;;;10.90;97.60;;;;;;5014804;28;20056;-75
2024/02/04 12:18:05;;;;;;;8.90;1.88;;;11.00;97.60;;;;;;5022422;28;20051;-76
2024/02/04 12:20:30;;;;;;;5.20;1.77;;;11.00;97.70;;;;;;5019691;28;20041;-75
2024/02/04 12:22:56;;;;;;;18.83;2.75;;;11.00;97.70;;;;;;5020937;28;20026;-76
2024/02/04 12:25:25;;;;;;;8.15;2.08;;;11.00;97.80;;;;;;5018861;28;20500;-79
2024/02/04 12:27:51;;;;;;;11.18;1.92;;;11.10;97.70;;;;;;5013696;28;20473;-77
2024/02/04 12:30:17;;;;;;;7.72;2.10;;;11.10;97.70;;;;;;5026428;28;20025;-76
2024/02/04 12:32:55;;;;;;;8.60;1.92;;;11.10;97.70;;;;;;5023324;28;20041;-77
2024/02/04 12:35:20;;;;;;;8.00;1.63;;;11.20;97.70;;;;;;5023928;28;20392;-78
2024/02/04 12:37:53;;;;;;;11.38;2.10;;;11.10;97.70;;;;;;5021160;28;20056;-78
2024/02/04 12:40:29;;;;;;;12.48;2.22;;;11.20;97.80;;;;;;5018114;28;20029;-78
2024/02/04 12:42:56;;;;;;;9.93;2.28;;;11.20;97.70;;;;;;5012404;28;20042;-79
2024/02/04 12:45:23;;;;;;;6.05;1.92;;;11.20;97.70;;;;;;5021539;28;20083;-79
2024/02/04 12:47:53;;;;;;;6.57;1.75;;;11.20;97.70;;;;;;5029254;28;20083;-78